createdAt,value
2022-11-01T00:01:21.893Z,32.67
2022-11-01T00:03:48.587Z,32.28
2022-11-01T00:06:15.246Z,32.65
2022-11-01T00:08:41.922Z,32.95
2022-11-01T00:11:13.098Z,32.72
2022-11-01T00:13:39.955Z,33.30
2022-11-01T00:16:06.895Z,32.58
2022-11-01T00:18:33.571Z,33.22
2022-11-01T00:21:00.241Z,33.88
2022-11-01T00:23:26.938Z,32.25
2022-11-01T00:25:53.615Z,32.60
2022-11-01T00:28:20.312Z,32.63
2022-11-01T00:30:47.021Z,31.92
2022-11-01T00:33:13.681Z,31.77
2022-11-01T00:35:40.421Z,30.00
2022-11-01T00:38:07.107Z,30.58
2022-11-01T00:40:33.899Z,28.80
2022-11-01T00:43:00.560Z,30.13
2022-11-01T00:45:27.273Z,29.92
2022-11-01T00:47:53.991Z,28.95
2022-11-01T00:50:20.742Z,30.05
2022-11-01T00:52:47.594Z,30.02
2022-11-01T00:55:14.412Z,30.27
2022-11-01T00:57:41.079Z,29.40
2022-11-01T01:00:08.496Z,28.75
2022-11-01T01:02:35.274Z,32.10
2022-11-01T01:05:02.024Z,31.20
2022-11-01T01:07:28.680Z,27.77
2022-11-01T01:09:55.362Z,28.33
2022-11-01T01:12:22.029Z,29.25
2022-11-01T01:14:48.738Z,28.25
2022-11-01T01:17:15.578Z,27.98
2022-11-01T01:19:42.232Z,26.58
2022-11-01T01:22:09.075Z,27.98
2022-11-01T01:24:35.803Z,26.73
2022-11-01T01:27:03.585Z,26.95
2022-11-01T01:29:30.406Z,26.55
2022-11-01T01:31:57.077Z,27.27
2022-11-01T01:34:23.710Z,26.52
2022-11-01T01:36:50.389Z,26.60
2022-11-01T01:39:17.044Z,26.50
2022-11-01T01:41:55.938Z,27.05
2022-11-01T01:45:07.983Z,26.30
2022-11-01T01:47:37.719Z,26.35
2022-11-01T01:50:24.284Z,25.70
2022-11-01T01:53:09.656Z,26.75
2022-11-01T01:55:55.108Z,25.33
2022-11-01T01:58:25.575Z,24.33
2022-11-01T02:00:54.196Z,24.17
2022-11-01T02:03:22.903Z,24.40
2022-11-01T02:05:56.752Z,24.25
2022-11-01T02:08:28.090Z,26.45
2022-11-01T02:11:02.104Z,23.42
2022-11-01T02:13:29.459Z,24.55
2022-11-01T02:16:09.669Z,25.00
2022-11-01T02:19:06.094Z,23.80
2022-11-01T02:21:51.508Z,23.52
2022-11-01T02:24:45.218Z,23.98
2022-11-01T02:27:32.403Z,23.15
2022-11-01T02:30:06.461Z,22.67
2022-11-01T02:32:33.053Z,23.33
2022-11-01T02:35:22.745Z,25.05
2022-11-01T02:38:06.438Z,24.17
2022-11-01T02:41:01.126Z,25.23
2022-11-01T02:43:45.487Z,23.95
2022-11-01T02:46:30.722Z,25.80
2022-11-01T02:48:58.221Z,24.65
2022-11-01T02:51:25.773Z,24.80
2022-11-01T02:53:52.511Z,25.02
2022-11-01T02:56:19.357Z,24.77
2022-11-01T02:58:46.849Z,23.75
2022-11-01T03:01:19.442Z,23.63
2022-11-01T03:03:47.883Z,23.92
2022-11-01T03:06:36.620Z,24.05
2022-11-01T03:09:08.022Z,23.13
2022-11-01T03:11:56.021Z,23.60
2022-11-01T03:14:37.888Z,22.58
2022-11-01T03:17:26.654Z,22.48
2022-11-01T03:20:14.331Z,22.75
2022-11-01T03:22:44.302Z,21.98
2022-11-01T03:25:35.759Z,22.05
2022-11-01T03:28:07.408Z,21.73
2022-11-01T03:30:35.115Z,23.15
2022-11-01T03:33:02.486Z,22.88
2022-11-01T03:35:34.705Z,23.77
2022-11-01T03:38:04.791Z,22.45
2022-11-01T03:40:33.062Z,22.88
2022-11-01T03:43:06.384Z,22.98
2022-11-01T03:45:35.844Z,22.27
2022-11-01T03:48:02.951Z,21.67
2022-11-01T03:50:29.936Z,23.08
2022-11-01T03:52:57.200Z,22.83
2022-11-01T03:55:24.053Z,21.65
2022-11-01T03:57:58.765Z,22.55
2022-11-01T04:00:32.483Z,22.60
2022-11-01T04:03:00.124Z,22.10
2022-11-01T04:05:28.952Z,23.52
2022-11-01T04:07:55.958Z,21.77
2022-11-01T04:10:23.896Z,22.67
2022-11-01T04:12:51.483Z,23.23
2022-11-01T04:15:38.225Z,22.38
2022-11-01T04:18:25.141Z,21.75
2022-11-01T04:20:52.892Z,21.23
2022-11-01T04:23:19.589Z,21.50
2022-11-01T04:25:49.175Z,22.83
2022-11-01T04:28:16.173Z,22.02
2022-11-01T04:30:43.985Z,23.25
2022-11-01T04:33:10.835Z,23.00
2022-11-01T04:35:40.873Z,23.25
2022-11-01T04:38:07.655Z,23.50
2022-11-01T04:40:34.528Z,25.73
2022-11-01T04:43:01.282Z,23.30
2022-11-01T04:45:28.023Z,26.30
2022-11-01T04:48:24.497Z,24.27
2022-11-01T04:50:51.183Z,26.15
2022-11-01T04:53:17.958Z,26.45
2022-11-01T04:55:44.687Z,26.80
2022-11-01T04:58:11.612Z,26.77
2022-11-01T05:00:38.690Z,28.08
2022-11-01T05:03:07.680Z,28.15
2022-11-01T05:05:35.071Z,27.60
2022-11-01T05:08:09.430Z,28.30
2022-11-01T05:10:38.700Z,27.60
2022-11-01T05:13:05.966Z,27.40
2022-11-01T05:15:32.959Z,27.40
2022-11-01T05:18:00.175Z,29.10
2022-11-01T05:20:26.846Z,28.70
2022-11-01T05:22:58.260Z,27.25
2022-11-01T05:25:25.032Z,28.77
2022-11-01T05:27:51.681Z,29.33
2022-11-01T05:30:18.461Z,28.10
2022-11-01T05:32:45.122Z,29.15
2022-11-01T05:35:11.799Z,28.63
2022-11-01T05:37:38.540Z,27.90
2022-11-01T05:40:05.713Z,29.08
2022-11-01T05:42:32.624Z,28.20
2022-11-01T05:44:59.302Z,27.88
2022-11-01T05:47:26.015Z,27.38
2022-11-01T05:49:52.655Z,28.20
2022-11-01T05:52:19.322Z,27.33
2022-11-01T05:54:45.954Z,28.45
2022-11-01T05:57:12.591Z,27.13
2022-11-01T05:59:39.291Z,27.33
2022-11-01T06:02:06.016Z,27.58
2022-11-01T06:04:32.769Z,26.65
2022-11-01T06:06:59.469Z,26.83
2022-11-01T06:09:26.126Z,27.55
2022-11-01T06:11:52.827Z,26.92
2022-11-01T06:14:19.459Z,26.58
2022-11-01T06:16:46.148Z,27.63
2022-11-01T06:19:12.911Z,26.83
2022-11-01T06:21:39.566Z,27.92
2022-11-01T06:24:06.341Z,26.95
2022-11-01T06:26:33.084Z,26.30
2022-11-01T06:29:03.350Z,26.75
2022-11-01T06:31:30.045Z,25.83
2022-11-01T06:33:56.702Z,26.17
2022-11-01T06:36:23.741Z,25.73
2022-11-01T06:38:50.423Z,26.42
2022-11-01T06:41:17.124Z,26.23
2022-11-01T06:43:43.816Z,26.00
2022-11-01T06:46:10.478Z,25.55
2022-11-01T06:48:37.104Z,27.33
2022-11-01T06:51:04.614Z,27.15
2022-11-01T06:53:31.450Z,27.38
2022-11-01T06:56:01.688Z,26.73
2022-11-01T06:58:28.654Z,26.73
2022-11-01T07:00:55.411Z,25.92
2022-11-01T07:03:22.224Z,26.02
2022-11-01T07:05:50.208Z,25.45
2022-11-01T07:08:16.870Z,25.77
2022-11-01T07:10:44.167Z,26.27
2022-11-01T07:13:13.324Z,25.65
2022-11-01T07:15:40.402Z,24.92
2022-11-01T07:18:08.470Z,24.83
2022-11-01T07:20:41.514Z,25.23
2022-11-01T07:23:16.274Z,23.90
2022-11-01T07:25:43.433Z,23.55
2022-11-01T07:28:10.605Z,24.17
2022-11-01T07:30:37.553Z,22.52
2022-11-01T07:33:05.296Z,25.17
2022-11-01T07:35:32.504Z,25.92
2022-11-01T07:38:01.270Z,24.58
2022-11-01T07:40:30.447Z,23.60
2022-11-01T07:43:00.152Z,23.73
2022-11-01T07:45:28.515Z,23.40
2022-11-01T07:48:02.830Z,22.85
2022-11-01T07:50:31.565Z,23.40
2022-11-01T07:53:01.861Z,23.10
2022-11-01T07:55:28.697Z,23.48
2022-11-01T07:57:55.571Z,23.73
2022-11-01T08:00:22.473Z,22.80
2022-11-01T08:02:49.672Z,23.70
2022-11-01T08:05:16.700Z,24.08
2022-11-01T08:07:43.387Z,25.20
2022-11-01T08:10:11.580Z,26.35
2022-11-01T08:12:41.117Z,23.33
2022-11-01T08:15:08.413Z,24.92
2022-11-01T08:17:35.106Z,23.70
2022-11-01T08:20:02.215Z,22.27
2022-11-01T08:22:28.927Z,24.02
2022-11-01T08:24:55.751Z,21.58
2022-11-01T08:27:22.484Z,21.02
2022-11-01T08:29:49.180Z,20.95
2022-11-01T08:32:19.978Z,20.75
2022-11-01T08:34:46.630Z,19.90
2022-11-01T08:37:13.775Z,20.20
2022-11-01T08:39:40.450Z,19.13
2022-11-01T08:42:07.255Z,18.90
2022-11-01T08:44:34.739Z,21.48
2022-11-01T08:47:01.863Z,20.85
2022-11-01T08:49:28.739Z,18.65
2022-11-01T08:51:55.918Z,18.05
2022-11-01T08:54:22.678Z,18.65
2022-11-01T08:56:49.320Z,17.67
2022-11-01T08:59:16.007Z,16.60
2022-11-01T09:01:42.774Z,17.10
2022-11-01T09:04:09.597Z,16.95
2022-11-01T09:06:36.631Z,17.15
2022-11-01T09:09:04.280Z,17.35
2022-11-01T09:11:31.210Z,17.83
2022-11-01T09:14:01.422Z,16.45
2022-11-01T09:16:28.543Z,15.68
2022-11-01T09:18:55.385Z,15.57
2022-11-01T09:21:22.054Z,15.35
2022-11-01T09:23:48.949Z,15.95
2022-11-01T09:26:15.710Z,15.25
2022-11-01T09:28:42.435Z,14.07
2022-11-01T09:31:26.339Z,14.50
2022-11-01T09:33:57.373Z,14.77
2022-11-01T09:36:25.188Z,14.73
2022-11-01T09:38:51.931Z,14.10
2022-11-01T09:41:47.399Z,14.52
2022-11-01T09:44:17.892Z,14.82
2022-11-01T09:46:53.485Z,14.30
2022-11-01T09:49:27.136Z,13.18
2022-11-01T09:51:54.385Z,13.75
2022-11-01T09:54:23.539Z,14.70
2022-11-01T09:56:56.263Z,14.07
2022-11-01T09:59:53.919Z,13.48
2022-11-01T10:02:34.540Z,12.90
2022-11-01T10:05:38.753Z,12.98
2022-11-01T10:08:31.159Z,13.30
2022-11-01T10:11:22.870Z,13.38
2022-11-01T10:14:16.361Z,12.82
2022-11-01T10:16:51.653Z,13.05
2022-11-01T10:19:19.558Z,13.15
2022-11-01T10:21:51.380Z,14.20
2022-11-01T10:24:22.042Z,12.40
2022-11-01T10:26:52.606Z,13.43
2022-11-01T10:29:28.374Z,14.00
2022-11-01T10:31:55.304Z,14.00
2022-11-01T10:34:25.650Z,12.82
2022-11-01T10:36:58.981Z,11.85
2022-11-01T10:39:56.175Z,12.77
2022-11-01T10:42:28.458Z,11.48
2022-11-01T10:44:58.821Z,12.38
2022-11-01T10:47:25.921Z,10.75
2022-11-01T10:50:12.406Z,10.90
2022-11-01T10:52:46.863Z,10.55
2022-11-01T10:55:17.776Z,11.48
2022-11-01T10:57:49.523Z,11.88
2022-11-01T11:00:19.490Z,10.55
2022-11-01T11:02:49.466Z,10.32
2022-11-01T11:05:16.514Z,8.77
2022-11-01T11:07:44.499Z,9.48
2022-11-01T11:10:25.117Z,9.07
2022-11-01T11:12:55.392Z,8.05
2022-11-01T11:15:42.489Z,8.45
2022-11-01T11:18:18.070Z,7.05
2022-11-01T11:20:44.878Z,7.75
2022-11-01T11:23:13.018Z,7.18
2022-11-01T11:25:41.800Z,6.60
2022-11-01T11:28:20.356Z,7.10
2022-11-01T11:30:47.209Z,6.13
2022-11-01T11:33:17.369Z,7.03
2022-11-01T11:35:53.112Z,6.25
2022-11-01T11:38:40.626Z,5.72
2022-11-01T11:41:10.119Z,5.60
2022-11-01T11:43:41.174Z,5.18
2022-11-01T11:46:10.804Z,5.60
2022-11-01T11:48:57.235Z,5.20
2022-11-01T11:51:26.748Z,5.53
2022-11-01T11:54:24.564Z,4.95
2022-11-01T11:56:54.220Z,5.68
2022-11-01T11:59:27.694Z,5.38
2022-11-01T12:01:56.769Z,5.47
2022-11-01T12:04:24.962Z,5.80
2022-11-01T12:06:51.866Z,6.13
2022-11-01T12:09:38.502Z,6.35
2022-11-01T12:12:07.017Z,5.30
2022-11-01T12:14:37.002Z,6.57
2022-11-01T12:17:25.788Z,5.72
2022-11-01T12:20:09.698Z,5.65
2022-11-01T12:22:38.568Z,6.00
2022-11-01T12:25:08.453Z,6.10
2022-11-01T12:27:36.157Z,5.07
2022-11-01T12:30:10.484Z,5.47
2022-11-01T12:32:47.821Z,5.78
2022-11-01T12:35:21.372Z,6.00
2022-11-01T12:37:54.012Z,5.72
2022-11-01T12:40:27.155Z,6.45
2022-11-01T12:43:01.633Z,6.20
2022-11-01T12:45:32.189Z,5.60
2022-11-01T12:48:08.854Z,6.00
2022-11-01T12:50:46.368Z,5.63
2022-11-01T12:53:37.824Z,5.72
2022-11-01T12:56:04.688Z,6.13
2022-11-01T12:58:33.868Z,5.82
2022-11-01T13:01:29.115Z,5.80
2022-11-01T13:04:07.060Z,5.60
2022-11-01T13:06:39.939Z,5.57
2022-11-01T13:09:48.708Z,5.63
2022-11-01T13:12:34.912Z,5.18
2022-11-01T13:15:40.754Z,4.88
2022-11-01T13:18:24.569Z,4.75
2022-11-01T13:20:59.355Z,5.05
2022-11-01T13:23:37.148Z,4.18
2022-11-01T13:26:13.529Z,5.03
2022-11-01T13:28:49.281Z,4.53
2022-11-01T13:31:47.126Z,4.85
2022-11-01T13:34:51.612Z,4.95
2022-11-01T13:37:21.267Z,4.88
2022-11-01T13:40:08.165Z,4.45
2022-11-01T13:42:38.907Z,4.53
2022-11-01T13:45:47.562Z,4.35
2022-11-01T13:48:33.193Z,5.13
2022-11-01T13:51:26.072Z,4.65
2022-11-01T13:53:58.799Z,4.97
2022-11-01T13:56:28.038Z,4.53
2022-11-01T13:58:54.818Z,4.93
2022-11-01T14:01:35.981Z,4.95
2022-11-01T14:04:12.345Z,4.63
2022-11-01T14:06:41.969Z,4.93
2022-11-01T14:09:23.883Z,4.60
2022-11-01T14:12:05.862Z,5.18
2022-11-01T14:14:32.652Z,4.82
2022-11-01T14:17:21.115Z,5.30
2022-11-01T14:19:50.084Z,4.65
2022-11-01T14:22:22.772Z,4.88
2022-11-01T14:24:54.195Z,4.50
2022-11-01T14:27:33.987Z,4.70
2022-11-01T14:30:01.780Z,5.35
2022-11-01T14:32:31.021Z,4.63
2022-11-01T14:35:03.859Z,4.63
2022-11-01T14:37:37.465Z,5.00
2022-11-01T14:40:18.894Z,4.65
2022-11-01T14:42:46.999Z,4.57
2022-11-01T14:45:27.984Z,4.80
2022-11-01T14:47:58.437Z,5.03
2022-11-01T14:50:31.666Z,4.07
2022-11-01T14:53:11.307Z,4.22
2022-11-01T14:55:38.722Z,4.10
2022-11-01T14:58:13.141Z,4.22
2022-11-01T15:00:40.400Z,4.70
2022-11-01T15:03:09.026Z,5.65
2022-11-01T15:05:43.976Z,4.90
2022-11-01T15:08:24.965Z,4.60
2022-11-01T15:10:53.553Z,4.93
2022-11-01T15:13:20.829Z,4.60
2022-11-01T15:16:02.067Z,4.70
2022-11-01T15:18:29.083Z,4.78
2022-11-01T15:20:58.287Z,4.13
2022-11-01T15:23:29.049Z,4.38
2022-11-01T15:25:57.222Z,4.57
2022-11-01T15:28:25.832Z,4.25
2022-11-01T15:30:57.395Z,5.07
2022-11-01T15:33:30.814Z,4.78
2022-11-01T15:35:59.854Z,4.70
2022-11-01T15:38:27.438Z,5.45
2022-11-01T15:40:54.289Z,5.18
2022-11-01T15:43:23.250Z,4.97
2022-11-01T15:45:55.495Z,4.43
2022-11-01T15:48:29.073Z,5.00
2022-11-01T15:51:01.433Z,5.43
2022-11-01T15:53:31.130Z,5.05
2022-11-01T15:56:12.893Z,4.68
2022-11-01T15:58:48.245Z,5.32
2022-11-01T16:01:18.346Z,4.93
2022-11-01T16:03:55.699Z,4.70
2022-11-01T16:06:23.490Z,4.95
2022-11-01T16:09:06.580Z,5.13
2022-11-01T16:11:34.359Z,5.38
2022-11-01T16:14:07.221Z,4.75
2022-11-01T16:16:56.805Z,5.03
2022-11-01T16:19:36.281Z,4.82
2022-11-01T16:22:03.747Z,5.53
2022-11-01T16:24:31.123Z,5.10
2022-11-01T16:27:03.758Z,6.03
2022-11-01T16:29:50.444Z,4.93
2022-11-01T16:32:20.097Z,5.30
2022-11-01T16:34:47.326Z,5.20
2022-11-01T16:37:29.638Z,5.18
2022-11-01T16:39:57.932Z,5.90
2022-11-01T16:42:24.900Z,5.72
2022-11-01T16:44:56.379Z,5.50
2022-11-01T16:47:23.679Z,5.30
2022-11-01T16:49:55.231Z,6.00
2022-11-01T16:52:22.586Z,5.60
2022-11-01T16:54:51.255Z,5.35
2022-11-01T16:57:24.109Z,5.93
2022-11-01T16:59:51.473Z,5.22
2022-11-01T17:02:21.014Z,4.95
2022-11-01T17:04:50.539Z,5.43
2022-11-01T17:07:17.593Z,5.88
2022-11-01T17:09:44.364Z,5.53
2022-11-01T17:12:11.687Z,5.50
2022-11-01T17:14:38.690Z,5.63
2022-11-01T17:17:08.850Z,5.75
2022-11-01T17:19:38.376Z,5.38
2022-11-01T17:22:08.560Z,5.50
2022-11-01T17:24:35.469Z,5.63
2022-11-01T17:27:05.343Z,5.15
2022-11-01T17:29:32.762Z,5.63
2022-11-01T17:32:01.117Z,5.90
2022-11-01T17:34:29.074Z,5.63
2022-11-01T17:36:57.487Z,5.82
2022-11-01T17:39:26.604Z,5.63
2022-11-01T17:41:53.354Z,6.03
2022-11-01T17:44:20.051Z,5.90
2022-11-01T17:46:46.889Z,7.20
2022-11-01T17:49:15.765Z,6.55
2022-11-01T17:51:43.007Z,7.70
2022-11-01T17:54:10.135Z,15.30
2022-11-01T17:56:36.769Z,73.93
2022-11-01T17:59:03.511Z,124.30
2022-11-01T18:01:30.615Z,73.22
2022-11-01T18:03:57.437Z,65.00
2022-11-01T18:06:24.171Z,54.40
2022-11-01T18:08:51.879Z,47.28
2022-11-01T18:11:32.101Z,40.28
2022-11-01T18:14:15.399Z,36.33
2022-11-01T18:16:49.446Z,32.90
2022-11-01T18:19:51.804Z,25.63
2022-11-01T18:22:20.842Z,18.00
2022-11-01T18:24:53.288Z,16.83
2022-11-01T18:27:24.398Z,13.70
2022-11-01T18:29:52.487Z,12.00
2022-11-01T18:32:58.283Z,10.90
2022-11-01T18:35:49.643Z,8.75
2022-11-01T18:38:41.364Z,9.40
2022-11-01T18:41:13.228Z,9.32
2022-11-01T18:43:40.234Z,10.57
2022-11-01T18:46:26.726Z,12.18
2022-11-01T18:49:01.312Z,12.20
2022-11-01T18:51:33.213Z,11.40
2022-11-01T18:54:09.065Z,11.63
2022-11-01T18:56:38.390Z,11.60
2022-11-01T18:59:30.732Z,11.70
2022-11-01T19:02:00.944Z,12.48
2022-11-01T19:04:31.322Z,11.48
2022-11-01T19:07:09.784Z,12.13
2022-11-01T19:09:39.696Z,11.80
2022-11-01T19:12:13.862Z,11.40
2022-11-01T19:14:40.545Z,10.45
2022-11-01T19:17:20.044Z,10.32
2022-11-01T19:19:47.635Z,10.48
2022-11-01T19:22:36.895Z,10.02
2022-11-01T19:25:15.054Z,10.30
2022-11-01T19:27:41.805Z,8.95
2022-11-01T19:30:27.356Z,9.23
2022-11-01T19:32:55.614Z,9.00
2022-11-01T19:35:23.029Z,9.02
2022-11-01T19:37:51.991Z,9.48
2022-11-01T19:40:31.720Z,10.52
2022-11-01T19:43:06.299Z,12.32
2022-11-01T19:45:33.452Z,12.45
2022-11-01T19:48:02.248Z,14.18
2022-11-01T19:50:55.937Z,25.00
2022-11-01T19:53:26.903Z,31.35
2022-11-01T19:56:07.810Z,33.13
2022-11-01T19:58:46.486Z,35.22
2022-11-01T20:01:24.141Z,33.70
2022-11-01T20:03:55.530Z,32.22
2022-11-01T20:06:31.678Z,31.08
2022-11-01T20:09:20.177Z,30.65
2022-11-01T20:11:46.917Z,29.65
2022-11-01T20:14:13.622Z,29.33
2022-11-01T20:16:40.556Z,26.63
2022-11-01T20:19:07.272Z,26.77
2022-11-01T20:21:34.049Z,25.65
2022-11-01T20:24:00.804Z,23.02
2022-11-01T20:26:27.579Z,23.40
2022-11-01T20:28:54.254Z,24.38
2022-11-01T20:31:20.994Z,21.42
2022-11-01T20:33:47.743Z,19.52
2022-11-01T20:36:14.556Z,18.88
2022-11-01T20:38:41.323Z,16.55
2022-11-01T20:41:08.008Z,16.27
2022-11-01T20:43:34.912Z,16.10
2022-11-01T20:46:01.849Z,16.20
2022-11-01T20:48:28.548Z,14.85
2022-11-01T20:50:55.250Z,14.30
2022-11-01T20:53:25.950Z,15.50
2022-11-01T20:55:55.394Z,15.25
2022-11-01T20:58:22.469Z,17.77
2022-11-01T21:00:50.392Z,17.33
2022-11-01T21:03:19.590Z,18.70
2022-11-01T21:05:48.225Z,18.77
2022-11-01T21:08:24.958Z,18.23
2022-11-01T21:11:13.967Z,18.13
2022-11-01T21:13:45.771Z,19.45
2022-11-01T21:16:30.045Z,18.55
2022-11-01T21:19:03.467Z,20.27
2022-11-01T21:21:35.116Z,20.90
2022-11-01T21:24:19.901Z,22.05
2022-11-01T21:26:50.892Z,21.63
2022-11-01T21:29:25.896Z,20.10
2022-11-01T21:31:52.658Z,21.13
2022-11-01T21:34:27.252Z,19.23
2022-11-01T21:36:54.476Z,16.15
2022-11-01T21:39:29.083Z,15.18
2022-11-01T21:41:57.407Z,13.35
2022-11-01T21:44:25.174Z,12.00
2022-11-01T21:46:54.479Z,12.68
2022-11-01T21:49:29.613Z,11.38
2022-11-01T21:52:00.371Z,12.95
2022-11-01T21:54:29.075Z,14.70
2022-11-01T21:56:56.974Z,16.17
2022-11-01T21:59:24.703Z,14.18
2022-11-01T22:01:51.490Z,15.38
2022-11-01T22:04:18.459Z,13.77
2022-11-01T22:06:45.430Z,13.98
2022-11-01T22:09:12.311Z,13.07
2022-11-01T22:11:39.019Z,12.13
2022-11-01T22:14:06.564Z,11.77
2022-11-01T22:16:33.528Z,11.35
2022-11-01T22:19:00.508Z,10.95
2022-11-01T22:21:27.266Z,11.15
2022-11-01T22:23:53.999Z,10.80
2022-11-01T22:26:20.880Z,10.10
2022-11-01T22:28:47.658Z,10.43
2022-11-01T22:31:14.694Z,10.40
2022-11-01T22:33:41.631Z,10.93
2022-11-01T22:36:12.322Z,10.57
2022-11-01T22:38:41.603Z,9.95
2022-11-01T22:41:14.210Z,9.40
2022-11-01T22:43:44.912Z,9.70
2022-11-01T22:46:26.477Z,9.38
2022-11-01T22:49:00.232Z,8.38
2022-11-01T22:51:48.009Z,8.50
2022-11-01T22:54:34.557Z,9.48
2022-11-01T22:57:12.352Z,9.00
2022-11-01T22:59:51.696Z,8.45
2022-11-01T23:02:18.464Z,8.05
2022-11-01T23:04:45.219Z,8.43
2022-11-01T23:07:30.715Z,8.43
2022-11-01T23:10:05.396Z,8.00
2022-11-01T23:12:52.412Z,8.20
2022-11-01T23:15:37.481Z,7.70
2022-11-01T23:18:26.615Z,8.52
2022-11-01T23:20:55.574Z,8.05
2022-11-01T23:23:25.488Z,7.30
2022-11-01T23:25:53.588Z,6.97
2022-11-01T23:28:20.552Z,7.13
2022-11-01T23:30:48.182Z,6.82
2022-11-01T23:33:17.223Z,7.07
2022-11-01T23:35:57.773Z,6.93
2022-11-01T23:38:33.597Z,7.50
2022-11-01T23:41:00.336Z,7.85
2022-11-01T23:43:32.951Z,6.95
2022-11-01T23:45:59.916Z,7.20
2022-11-01T23:48:26.802Z,7.57
2022-11-01T23:50:53.943Z,7.18
2022-11-01T23:53:26.186Z,7.13
2022-11-01T23:55:53.806Z,8.32
2022-11-01T23:58:25.242Z,7.43
